createdAt,value
2022-09-10T00:00:10.801Z,82.52
2022-09-10T00:00:56.269Z,82.47
2022-09-10T00:01:33.871Z,82.50
2022-09-10T00:02:05.750Z,82.56
2022-09-10T00:02:38.253Z,82.63
2022-09-10T00:03:10.957Z,82.74
2022-09-10T00:03:43.255Z,82.71
2022-09-10T00:04:15.804Z,82.79
2022-09-10T00:04:47.621Z,82.76
2022-09-10T00:05:20.886Z,82.86
2022-09-10T00:05:52.997Z,82.93
2022-09-10T00:06:27.288Z,83.00
2022-09-10T00:06:59.190Z,83.01
2022-09-10T00:07:32.261Z,83.03
2022-09-10T00:08:04.692Z,83.01
2022-09-10T00:08:37.972Z,83.05
2022-09-10T00:09:12.449Z,83.20
2022-09-10T00:09:45.131Z,83.08
2022-09-10T00:10:18.313Z,83.19
2022-09-10T00:10:51.573Z,83.11
2022-09-10T00:11:25.738Z,83.16
2022-09-10T00:11:57.665Z,83.25
2022-09-10T00:12:29.526Z,83.26
2022-09-10T00:13:01.558Z,83.26
2022-09-10T00:13:34.015Z,83.21
2022-09-10T00:14:09.298Z,83.24
2022-09-10T00:14:41.176Z,83.26
2022-09-10T00:15:14.099Z,83.20
2022-09-10T00:15:52.230Z,83.25
2022-09-10T00:16:25.560Z,83.27
2022-09-10T00:16:57.392Z,83.24
2022-09-10T00:17:29.188Z,83.33
2022-09-10T00:18:00.986Z,83.27
2022-09-10T00:18:34.169Z,83.20
2022-09-10T00:19:06.311Z,83.24
2022-09-10T00:19:38.117Z,83.12
2022-09-10T00:20:10.559Z,83.16
2022-09-10T00:20:50.199Z,83.23
2022-09-10T00:21:22.213Z,83.17
2022-09-10T00:21:54.174Z,83.15
2022-09-10T00:22:25.983Z,83.23
2022-09-10T00:22:57.837Z,83.25
2022-09-10T00:23:30.485Z,83.37
2022-09-10T00:24:04.698Z,83.40
2022-09-10T00:24:36.490Z,83.35
2022-09-10T00:25:08.641Z,83.38
2022-09-10T00:25:40.632Z,83.49
2022-09-10T00:26:18.640Z,83.49
2022-09-10T00:26:50.924Z,83.57
2022-09-10T00:27:23.720Z,83.60
2022-09-10T00:27:55.517Z,83.62
2022-09-10T00:28:28.145Z,83.68
2022-09-10T00:28:59.968Z,83.73
2022-09-10T00:29:31.932Z,83.74
2022-09-10T00:30:04.026Z,83.85
2022-09-10T00:30:44.562Z,83.91
2022-09-10T00:31:17.343Z,83.89
2022-09-10T00:31:49.636Z,83.96
2022-09-10T00:32:21.739Z,84.01
2022-09-10T00:32:56.290Z,84.04
2022-09-10T00:33:29.543Z,84.09
2022-09-10T00:34:02.827Z,84.08
2022-09-10T00:34:34.702Z,84.08
2022-09-10T00:35:07.812Z,84.20
2022-09-10T00:35:40.117Z,84.25
2022-09-10T00:36:19.014Z,84.31
2022-09-10T00:36:50.775Z,84.29
2022-09-10T00:37:22.516Z,84.32
2022-09-10T00:37:54.288Z,84.25
2022-09-10T00:38:31.148Z,84.28
2022-09-10T00:39:07.219Z,84.27
2022-09-10T00:39:39.151Z,84.22
2022-09-10T00:40:11.042Z,84.21
2022-09-10T00:40:43.204Z,84.23
2022-09-10T00:41:16.909Z,84.21
2022-09-10T00:41:49.080Z,84.20
2022-09-10T00:42:21.074Z,84.15
2022-09-10T00:42:52.885Z,84.21
2022-09-10T00:43:24.896Z,84.17
2022-09-10T00:43:59.452Z,84.09
2022-09-10T00:44:37.687Z,84.09
2022-09-10T00:45:34.586Z,84.06
2022-09-10T00:46:06.511Z,84.05
2022-09-10T00:46:51.327Z,84.14
2022-09-10T00:47:28.596Z,84.07
2022-09-10T00:48:26.864Z,84.10
2022-09-10T00:49:02.559Z,84.04
2022-09-10T00:49:41.281Z,84.11
2022-09-10T00:50:27.544Z,84.06
2022-09-10T00:51:04.495Z,84.11
2022-09-10T00:51:36.941Z,84.09
2022-09-10T00:52:09.555Z,84.10
2022-09-10T00:52:42.721Z,84.09
2022-09-10T00:53:17.899Z,84.13
2022-09-10T00:53:50.474Z,84.05
2022-09-10T00:54:26.543Z,84.03
2022-09-10T00:54:58.986Z,84.12
2022-09-10T00:55:31.314Z,84.16
2022-09-10T00:56:04.809Z,84.06
2022-09-10T00:56:37.148Z,84.03
2022-09-10T00:57:13.535Z,84.04
2022-09-10T00:57:48.979Z,84.05
2022-09-10T00:58:22.210Z,84.06
2022-09-10T00:58:54.891Z,84.14
2022-09-10T00:59:27.875Z,84.13
2022-09-10T01:00:04.868Z,84.17
2022-09-10T01:00:37.608Z,84.18
2022-09-10T01:01:10.493Z,84.22
2022-09-10T01:01:42.855Z,84.20
2022-09-10T01:02:14.639Z,84.24
2022-09-10T01:02:46.867Z,84.32
2022-09-10T01:03:22.427Z,84.37
2022-09-10T01:03:57.059Z,84.34
2022-09-10T01:04:28.814Z,84.41
2022-09-10T01:05:02.958Z,84.42
2022-09-10T01:05:34.742Z,84.39
2022-09-10T01:06:06.883Z,84.52
2022-09-10T01:06:41.071Z,84.50
2022-09-10T01:07:15.318Z,84.52
2022-09-10T01:07:47.789Z,84.62
2022-09-10T01:08:19.719Z,84.61
2022-09-10T01:08:52.037Z,84.63
2022-09-10T01:09:25.034Z,84.66
2022-09-10T01:09:59.496Z,84.63
2022-09-10T01:10:40.264Z,84.67
2022-09-10T01:11:11.907Z,84.65
2022-09-10T01:12:06.706Z,84.59
2022-09-10T01:13:13.971Z,84.66
2022-09-10T01:14:10.005Z,84.59
2022-09-10T01:15:20.211Z,84.57
2022-09-10T01:16:22.015Z,84.65
2022-09-10T01:17:16.737Z,84.64
2022-09-10T01:17:51.537Z,84.60
2022-09-10T01:18:33.574Z,84.62
2022-09-10T01:19:17.072Z,84.60
2022-09-10T01:20:26.532Z,84.54
2022-09-10T01:21:27.359Z,84.54
2022-09-10T01:22:21.667Z,84.48
2022-09-10T01:23:17.071Z,84.53
2022-09-10T01:24:20.945Z,84.63
2022-09-10T01:25:02.645Z,84.69
2022-09-10T01:25:45.192Z,84.72
2022-09-10T01:26:47.450Z,84.73
2022-09-10T01:27:39.620Z,84.72
2022-09-10T01:28:55.968Z,84.83
2022-09-10T01:29:46.732Z,84.85
2022-09-10T01:30:28.419Z,84.94
2022-09-10T01:31:11.622Z,84.88
2022-09-10T01:31:55.342Z,84.98
2022-09-10T01:32:34.137Z,84.99
2022-09-10T01:33:16.387Z,84.97
2022-09-10T01:33:58.889Z,85.00
2022-09-10T01:34:41.317Z,84.99
2022-09-10T01:35:25.183Z,85.07
2022-09-10T01:36:01.850Z,85.02
2022-09-10T01:36:38.766Z,84.99
2022-09-10T01:37:17.870Z,84.98
2022-09-10T01:37:54.836Z,84.95
2022-09-10T01:38:35.092Z,84.93
2022-09-10T01:39:07.849Z,84.91
2022-09-10T01:39:41.209Z,84.78
2022-09-10T01:40:14.733Z,84.78
2022-09-10T01:40:47.479Z,84.80
2022-09-10T01:41:23.345Z,84.84
2022-09-10T01:41:55.135Z,84.86
2022-09-10T01:42:28.034Z,84.89
2022-09-10T01:43:01.727Z,84.93
2022-09-10T01:43:34.749Z,84.99
2022-09-10T01:44:30.814Z,84.91
2022-09-10T01:45:02.565Z,84.90
2022-09-10T01:46:00.327Z,84.81
2022-09-10T01:46:54.806Z,84.82
2022-09-10T01:47:37.035Z,84.81
2022-09-10T01:48:27.976Z,84.67
2022-09-10T01:49:08.813Z,84.75
2022-09-10T01:49:40.391Z,84.73
2022-09-10T01:51:04.087Z,84.66
2022-09-10T01:51:57.389Z,84.66
2022-09-10T01:52:35.898Z,84.70
2022-09-10T01:53:33.009Z,84.75
2022-09-10T01:54:13.549Z,84.71
2022-09-10T01:55:16.726Z,84.80
2022-09-10T01:56:24.241Z,84.64
2022-09-10T01:57:39.359Z,84.67
2022-09-10T01:58:37.461Z,84.69
2022-09-10T01:59:28.914Z,84.76
2022-09-10T02:00:03.987Z,84.79
2022-09-10T02:00:40.615Z,84.86
2022-09-10T02:01:25.774Z,84.83
2022-09-10T02:02:12.837Z,84.81
2022-09-10T02:02:57.442Z,84.92
2022-09-10T02:03:31.594Z,84.83
2022-09-10T02:04:08.259Z,84.84
2022-09-10T02:04:43.229Z,84.82
2022-09-10T02:05:19.418Z,84.77
2022-09-10T02:05:53.534Z,84.77
2022-09-10T02:06:29.297Z,84.76
2022-09-10T02:07:03.889Z,84.74
2022-09-10T02:07:36.939Z,84.73
2022-09-10T02:08:14.119Z,84.75
2022-09-10T02:08:51.550Z,84.69
2022-09-10T02:09:24.054Z,84.70
2022-09-10T02:09:56.999Z,84.71
2022-09-10T02:10:29.059Z,84.60
2022-09-10T02:11:05.752Z,84.60
2022-09-10T02:11:47.280Z,84.53
2022-09-10T02:12:21.126Z,84.48
2022-09-10T02:12:53.813Z,84.48
2022-09-10T02:13:28.284Z,84.47
2022-09-10T02:13:59.988Z,84.45
2022-09-10T02:14:31.851Z,84.44
2022-09-10T02:15:05.367Z,84.43
2022-09-10T02:15:38.007Z,84.37
2022-09-10T02:16:14.843Z,84.27
2022-09-10T02:16:54.603Z,84.29
2022-09-10T02:17:33.607Z,84.23
2022-09-10T02:18:06.250Z,84.22
2022-09-10T02:18:39.776Z,84.22
2022-09-10T02:19:12.563Z,84.10
2022-09-10T02:19:48.179Z,84.12
2022-09-10T02:20:21.683Z,84.10
2022-09-10T02:20:55.776Z,84.19
2022-09-10T02:21:28.131Z,84.12
2022-09-10T02:22:00.531Z,84.05
2022-09-10T02:22:35.875Z,84.00
2022-09-10T02:23:10.320Z,84.02
2022-09-10T02:23:46.073Z,84.04
2022-09-10T02:24:17.779Z,83.96
2022-09-10T02:24:50.319Z,84.09
2022-09-10T02:25:23.875Z,84.09
2022-09-10T02:25:55.620Z,84.04
2022-09-10T02:26:27.592Z,84.19
2022-09-10T02:27:00.282Z,84.23
2022-09-10T02:27:32.431Z,84.18
2022-09-10T02:28:06.072Z,84.19
2022-09-10T02:28:38.347Z,84.15
2022-09-10T02:29:13.585Z,84.21
2022-09-10T02:29:46.634Z,84.24
2022-09-10T02:30:19.836Z,84.24
2022-09-10T02:30:51.881Z,84.28
2022-09-10T02:31:23.946Z,84.28
2022-09-10T02:31:55.818Z,84.30
2022-09-10T02:32:28.305Z,84.34
2022-09-10T02:33:00.103Z,84.35
2022-09-10T02:33:32.366Z,84.38
2022-09-10T02:34:04.253Z,84.39
2022-09-10T02:34:36.232Z,84.48
2022-09-10T02:35:08.465Z,84.54
2022-09-10T02:35:40.143Z,84.62
2022-09-10T02:36:12.154Z,84.57
2022-09-10T02:36:44.140Z,84.63
2022-09-10T02:37:16.439Z,84.73
2022-09-10T02:37:50.322Z,84.75
2022-09-10T02:38:22.091Z,84.67
2022-09-10T02:38:56.373Z,84.74
2022-09-10T02:39:28.326Z,84.77
2022-09-10T02:40:00.313Z,84.65
2022-09-10T02:40:32.231Z,84.74
2022-09-10T02:41:04.083Z,84.71
2022-09-10T02:41:36.323Z,84.64
2022-09-10T02:42:08.196Z,84.68
2022-09-10T02:42:39.969Z,84.71
2022-09-10T02:43:12.108Z,84.71
2022-09-10T02:43:44.905Z,84.66
2022-09-10T02:44:17.257Z,84.74
2022-09-10T02:44:49.417Z,84.71
2022-09-10T02:45:21.170Z,84.72
2022-09-10T02:45:57.399Z,84.67
2022-09-10T02:46:29.771Z,84.64
2022-09-10T02:47:01.597Z,84.66
2022-09-10T02:47:33.349Z,84.64
2022-09-10T02:48:05.112Z,84.55
2022-09-10T02:48:36.924Z,84.66
2022-09-10T02:49:09.599Z,84.69
2022-09-10T02:49:41.467Z,84.63
2022-09-10T02:50:13.269Z,84.70
2022-09-10T02:50:45.708Z,84.65
2022-09-10T02:51:17.427Z,84.64
2022-09-10T02:51:52.123Z,84.61
2022-09-10T02:52:24.065Z,84.60
2022-09-10T02:52:55.764Z,84.55
2022-09-10T02:53:27.766Z,84.51
2022-09-10T02:53:59.653Z,84.60
2022-09-10T02:54:32.206Z,84.60
2022-09-10T02:55:04.116Z,84.56
2022-09-10T02:55:35.949Z,84.54
2022-09-10T02:56:08.194Z,84.53
2022-09-10T02:56:39.995Z,84.47
2022-09-10T02:57:11.777Z,84.41
2022-09-10T02:57:43.765Z,84.39
2022-09-10T02:58:16.402Z,84.45
2022-09-10T02:58:48.320Z,84.35
2022-09-10T02:59:20.203Z,84.31
2022-09-10T02:59:53.505Z,84.22
2022-09-10T03:00:25.531Z,84.17
2022-09-10T03:01:08.370Z,84.17
2022-09-10T03:01:40.177Z,84.13
2022-09-10T03:02:12.143Z,84.05
2022-09-10T03:02:43.965Z,84.04
2022-09-10T03:03:16.765Z,84.04
2022-09-10T03:03:54.611Z,84.08
2022-09-10T03:04:26.437Z,84.12
2022-09-10T03:04:58.633Z,84.08
2022-09-10T03:05:30.444Z,84.15
2022-09-10T03:06:03.686Z,84.14
2022-09-10T03:06:36.614Z,84.13
2022-09-10T03:07:08.423Z,84.10
2022-09-10T03:07:40.335Z,84.26
2022-09-10T03:08:12.111Z,84.13
2022-09-10T03:08:43.902Z,84.16
2022-09-10T03:09:16.724Z,84.09
2022-09-10T03:09:49.612Z,84.11
2022-09-10T03:10:21.526Z,84.17
2022-09-10T03:10:53.472Z,84.07
2022-09-10T03:11:26.930Z,84.08
2022-09-10T03:11:59.335Z,84.14
2022-09-10T03:12:31.417Z,84.02
2022-09-10T03:13:03.244Z,84.01
2022-09-10T03:13:35.056Z,83.91
2022-09-10T03:14:10.500Z,83.75
2022-09-10T03:14:43.083Z,83.79
2022-09-10T03:15:15.195Z,83.86
2022-09-10T03:15:47.057Z,83.85
2022-09-10T03:16:20.175Z,83.96
2022-09-10T03:16:52.248Z,83.94
2022-09-10T03:17:24.883Z,83.99
2022-09-10T03:17:56.698Z,84.04
2022-09-10T03:18:28.465Z,84.01
2022-09-10T03:19:00.848Z,84.04
2022-09-10T03:19:32.565Z,84.02
2022-09-10T03:20:04.863Z,84.04
2022-09-10T03:20:36.543Z,84.04
2022-09-10T03:21:17.923Z,83.97
2022-09-10T03:21:49.715Z,84.05
2022-09-10T03:22:21.491Z,84.04
2022-09-10T03:22:53.236Z,83.98
2022-09-10T03:23:26.752Z,83.99
2022-09-10T03:23:58.499Z,83.90
2022-09-10T03:24:30.269Z,83.90
2022-09-10T03:25:02.062Z,83.82
2022-09-10T03:25:33.908Z,83.82
2022-09-10T03:26:06.373Z,83.74
2022-09-10T03:26:38.392Z,83.81
2022-09-10T03:27:10.404Z,83.87
2022-09-10T03:27:42.185Z,83.89
2022-09-10T03:28:15.153Z,83.84
2022-09-10T03:28:47.846Z,83.78
2022-09-10T03:29:20.550Z,83.86
2022-09-10T03:29:52.335Z,83.76
2022-09-10T03:30:24.229Z,83.83
2022-09-10T03:30:56.162Z,83.82
2022-09-10T03:31:28.194Z,83.75
2022-09-10T03:32:00.851Z,83.60
2022-09-10T03:32:32.661Z,83.60
2022-09-10T03:33:04.442Z,83.56
2022-09-10T03:33:37.481Z,83.60
2022-09-10T03:34:12.153Z,83.59
2022-09-10T03:34:43.879Z,83.55
2022-09-10T03:35:16.376Z,83.65
2022-09-10T03:35:48.620Z,83.66
2022-09-10T03:36:22.294Z,83.73
2022-09-10T03:36:54.249Z,83.61
2022-09-10T03:37:26.313Z,83.63
2022-09-10T03:37:58.012Z,83.61
2022-09-10T03:38:29.923Z,83.73
2022-09-10T03:39:01.700Z,83.77
2022-09-10T03:39:33.565Z,83.76
2022-09-10T03:40:07.478Z,83.73
2022-09-10T03:40:39.671Z,83.73
2022-09-10T03:41:11.381Z,83.68
2022-09-10T03:41:44.871Z,83.77
2022-09-10T03:42:16.691Z,83.66
2022-09-10T03:42:48.593Z,83.69
2022-09-10T03:43:22.062Z,83.68
2022-09-10T03:43:55.259Z,83.72
2022-09-10T03:44:28.000Z,83.58
2022-09-10T03:44:59.995Z,83.53
2022-09-10T03:45:32.108Z,83.62
2022-09-10T03:46:04.966Z,83.53
2022-09-10T03:46:37.820Z,83.59
2022-09-10T03:47:11.370Z,83.59
2022-09-10T03:47:43.423Z,83.63
2022-09-10T03:48:19.356Z,83.61
2022-09-10T03:48:55.213Z,83.63
2022-09-10T03:49:28.277Z,83.65
2022-09-10T03:50:00.057Z,83.72
2022-09-10T03:50:31.781Z,83.70
2022-09-10T03:51:04.091Z,83.68
2022-09-10T03:51:35.992Z,83.75
2022-09-10T03:52:12.043Z,83.82
2022-09-10T03:52:43.776Z,83.85
2022-09-10T03:53:17.616Z,83.79
2022-09-10T03:53:49.379Z,83.81
2022-09-10T03:54:21.256Z,83.95
2022-09-10T03:54:53.110Z,83.90
2022-09-10T03:55:24.876Z,84.07
2022-09-10T03:55:56.590Z,84.10
2022-09-10T03:56:28.466Z,84.07
2022-09-10T03:57:02.181Z,84.05
2022-09-10T03:57:34.018Z,84.16
2022-09-10T03:58:06.051Z,84.13
2022-09-10T03:58:38.569Z,84.19
2022-09-10T03:59:12.984Z,84.21
2022-09-10T03:59:45.642Z,84.28
2022-09-10T04:00:17.689Z,84.25
2022-09-10T04:00:49.507Z,84.37
2022-09-10T04:01:21.255Z,84.50
2022-09-10T04:01:53.151Z,84.38
2022-09-10T04:02:25.046Z,84.41
2022-09-10T04:02:58.166Z,84.38
2022-09-10T04:03:30.224Z,84.42
2022-09-10T04:04:02.682Z,84.42
2022-09-10T04:04:36.946Z,84.36
2022-09-10T04:05:09.012Z,84.37
2022-09-10T04:05:45.277Z,84.47
2022-09-10T04:06:17.228Z,84.45
2022-09-10T04:06:50.335Z,84.58
2022-09-10T04:07:22.291Z,84.50
2022-09-10T04:07:54.710Z,84.52
2022-09-10T04:08:26.590Z,84.50
2022-09-10T04:08:59.748Z,84.57
2022-09-10T04:09:32.120Z,84.46
2022-09-10T04:10:04.892Z,84.43
2022-09-10T04:10:38.122Z,84.55
2022-09-10T04:11:10.674Z,84.55
2022-09-10T04:11:42.444Z,84.54
2022-09-10T04:12:14.688Z,84.56
2022-09-10T04:12:48.467Z,84.59
2022-09-10T04:13:20.239Z,84.59
2022-09-10T04:13:52.567Z,84.58
2022-09-10T04:14:24.619Z,84.58
2022-09-10T04:14:56.642Z,84.59
2022-09-10T04:15:28.705Z,84.62
2022-09-10T04:16:01.289Z,84.79
2022-09-10T04:16:33.270Z,84.71
2022-09-10T04:17:05.287Z,84.73
2022-09-10T04:17:37.064Z,84.77
2022-09-10T04:18:09.523Z,84.80
2022-09-10T04:18:41.747Z,84.82
2022-09-10T04:19:13.560Z,84.84
2022-09-10T04:19:45.272Z,84.85
2022-09-10T04:20:24.869Z,84.93
2022-09-10T04:20:56.606Z,84.88
2022-09-10T04:21:28.775Z,84.81
2022-09-10T04:22:00.478Z,84.75
2022-09-10T04:22:32.393Z,84.83
2022-09-10T04:23:05.227Z,84.83
2022-09-10T04:23:37.631Z,84.93
2022-09-10T04:24:12.605Z,84.92
2022-09-10T04:24:44.410Z,84.98
2022-09-10T04:25:17.062Z,84.97
2022-09-10T04:25:49.207Z,84.96
2022-09-10T04:26:22.136Z,84.98
2022-09-10T04:26:54.008Z,84.99
2022-09-10T04:27:26.367Z,85.07
2022-09-10T04:27:58.203Z,85.02
2022-09-10T04:28:30.812Z,85.06
2022-09-10T04:29:02.507Z,85.04
2022-09-10T04:29:34.312Z,85.12
2022-09-10T04:30:07.042Z,85.20
2022-09-10T04:30:39.955Z,85.15
2022-09-10T04:31:12.007Z,85.13
2022-09-10T04:31:46.030Z,85.11
2022-09-10T04:32:17.968Z,85.17
2022-09-10T04:32:50.015Z,85.15
2022-09-10T04:33:21.798Z,85.16
2022-09-10T04:33:53.535Z,85.14
2022-09-10T04:34:25.761Z,85.07
2022-09-10T04:34:58.668Z,84.98
2022-09-10T04:35:30.520Z,85.00
2022-09-10T04:36:03.886Z,85.05
2022-09-10T04:36:35.760Z,84.93
2022-09-10T04:37:07.551Z,84.95
2022-09-10T04:37:39.324Z,84.98
2022-09-10T04:38:11.319Z,85.04
2022-09-10T04:38:43.798Z,85.12
2022-09-10T04:39:16.618Z,85.08
2022-09-10T04:39:48.573Z,85.07
2022-09-10T04:40:20.387Z,85.15
2022-09-10T04:40:52.247Z,85.23
2022-09-10T04:41:24.157Z,85.25
2022-09-10T04:41:55.911Z,85.12
2022-09-10T04:42:28.116Z,85.07
2022-09-10T04:43:00.617Z,85.20
2022-09-10T04:43:32.481Z,85.15
2022-09-10T04:44:04.371Z,85.23
2022-09-10T04:44:36.556Z,85.15
2022-09-10T04:45:09.320Z,85.17
2022-09-10T04:45:41.099Z,85.25
2022-09-10T04:46:12.983Z,85.34
2022-09-10T04:46:45.040Z,85.34
2022-09-10T04:47:17.569Z,85.32
2022-09-10T04:47:49.448Z,85.37
2022-09-10T04:48:22.818Z,85.34
2022-09-10T04:48:54.558Z,85.42
2022-09-10T04:49:26.340Z,85.39
2022-09-10T04:49:58.145Z,85.44
2022-09-10T04:50:30.031Z,85.41
2022-09-10T04:51:17.984Z,85.47
2022-09-10T04:51:50.267Z,85.46
2022-09-10T04:52:23.745Z,85.55
2022-09-10T04:52:55.662Z,85.58
2022-09-10T04:53:27.958Z,85.62
2022-09-10T04:53:59.864Z,85.62
2022-09-10T04:54:33.369Z,85.70
2022-09-10T04:55:06.069Z,85.66
2022-09-10T04:55:40.285Z,85.76
2022-09-10T04:56:12.544Z,85.75
2022-09-10T04:56:46.441Z,85.71
2022-09-10T04:57:18.166Z,85.69
2022-09-10T04:57:49.926Z,85.81
2022-09-10T04:58:22.316Z,85.92
2022-09-10T04:58:54.271Z,85.89
2022-09-10T04:59:29.157Z,86.00
2022-09-10T05:00:01.583Z,85.92
2022-09-10T05:00:33.439Z,85.97
2022-09-10T05:01:05.371Z,86.07
2022-09-10T05:01:37.349Z,86.11
2022-09-10T05:02:09.289Z,86.14
2022-09-10T05:02:41.160Z,86.20
2022-09-10T05:03:14.247Z,86.26
2022-09-10T05:03:46.066Z,86.18
2022-09-10T05:04:18.303Z,86.16
2022-09-10T05:04:50.460Z,86.09
2022-09-10T05:05:22.414Z,86.11
2022-09-10T05:05:54.268Z,86.17
2022-09-10T05:06:26.254Z,86.14
2022-09-10T05:06:58.205Z,86.19
2022-09-10T05:07:30.575Z,86.19
2022-09-10T05:08:05.310Z,86.22
2022-09-10T05:08:37.302Z,86.22
2022-09-10T05:09:09.259Z,86.19
2022-09-10T05:09:41.078Z,86.25
2022-09-10T05:10:13.122Z,86.28
2022-09-10T05:10:45.048Z,86.22
2022-09-10T05:11:19.339Z,86.36
2022-09-10T05:11:51.217Z,86.34
2022-09-10T05:12:23.801Z,86.40
2022-09-10T05:12:55.507Z,86.40
2022-09-10T05:13:28.110Z,86.38
2022-09-10T05:14:00.161Z,86.35
2022-09-10T05:14:33.256Z,86.30
2022-09-10T05:15:06.778Z,86.29
2022-09-10T05:15:41.136Z,86.28
2022-09-10T05:16:13.785Z,86.38
2022-09-10T05:16:45.834Z,86.41
2022-09-10T05:17:17.820Z,86.40
2022-09-10T05:17:49.705Z,86.45
2022-09-10T05:18:21.741Z,86.41
2022-09-10T05:18:54.089Z,86.36
2022-09-10T05:19:26.061Z,86.23
2022-09-10T05:19:57.933Z,86.22
2022-09-10T05:20:29.807Z,86.14
2022-09-10T05:21:01.617Z,86.16
2022-09-10T05:21:33.523Z,86.11
2022-09-10T05:22:05.320Z,86.04
2022-09-10T05:22:40.494Z,86.09
2022-09-10T05:23:12.868Z,86.09
2022-09-10T05:23:44.843Z,86.13
2022-09-10T05:24:16.724Z,86.17
2022-09-10T05:24:48.938Z,86.14
2022-09-10T05:25:23.964Z,86.23
2022-09-10T05:25:56.635Z,86.13
2022-09-10T05:26:28.440Z,86.13
2022-09-10T05:27:00.472Z,86.21
2022-09-10T05:27:32.410Z,86.22
2022-09-10T05:28:05.618Z,86.31
2022-09-10T05:28:37.496Z,86.29
2022-09-10T05:29:10.859Z,86.33
2022-09-10T05:29:43.167Z,86.35
2022-09-10T05:30:16.779Z,86.36
2022-09-10T05:30:51.780Z,86.37
2022-09-10T05:31:24.102Z,86.29
2022-09-10T05:31:55.937Z,86.29
2022-09-10T05:32:28.426Z,86.31
2022-09-10T05:33:01.260Z,86.39
2022-09-10T05:33:33.098Z,86.34
2022-09-10T05:34:04.945Z,86.30
2022-09-10T05:34:39.115Z,86.41
2022-09-10T05:35:10.957Z,86.36
2022-09-10T05:35:43.165Z,86.30
2022-09-10T05:36:15.004Z,86.24
2022-09-10T05:36:47.850Z,86.30
2022-09-10T05:37:19.788Z,86.35
2022-09-10T05:37:51.677Z,86.36
2022-09-10T05:38:24.598Z,86.25
2022-09-10T05:38:59.622Z,86.30
2022-09-10T05:39:31.629Z,86.33
2022-09-10T05:40:06.152Z,86.31
2022-09-10T05:40:38.122Z,86.31
2022-09-10T05:41:10.446Z,86.32
2022-09-10T05:41:43.455Z,86.31
2022-09-10T05:42:15.552Z,86.27
2022-09-10T05:42:48.888Z,86.29
2022-09-10T05:43:20.633Z,86.27
2022-09-10T05:43:52.432Z,86.19
2022-09-10T05:44:24.412Z,86.20
2022-09-10T05:44:56.771Z,86.22
2022-09-10T05:45:29.683Z,86.24
2022-09-10T05:46:01.793Z,86.27
2022-09-10T05:46:33.748Z,86.29
2022-09-10T05:47:06.227Z,86.36
2022-09-10T05:47:38.319Z,86.28
2022-09-10T05:48:10.099Z,86.33
2022-09-10T05:48:42.684Z,86.27
2022-09-10T05:49:14.892Z,86.37
2022-09-10T05:49:47.508Z,86.40
2022-09-10T05:50:21.379Z,86.48
2022-09-10T05:50:53.271Z,86.48
2022-09-10T05:51:29.343Z,86.51
2022-09-10T05:52:01.341Z,86.59
2022-09-10T05:52:33.780Z,86.56
2022-09-10T05:53:05.869Z,86.58
2022-09-10T05:53:37.791Z,86.46
2022-09-10T05:54:10.850Z,86.49
2022-09-10T05:54:44.275Z,86.56
2022-09-10T05:55:16.845Z,86.58
2022-09-10T05:55:49.339Z,86.68
2022-09-10T05:56:21.266Z,86.65
2022-09-10T05:56:53.735Z,86.69
2022-09-10T05:57:26.380Z,86.76
2022-09-10T05:57:58.992Z,86.85
2022-09-10T05:58:30.996Z,86.95
2022-09-10T05:59:03.798Z,86.94
2022-09-10T05:59:36.197Z,87.01
2022-09-10T06:00:09.461Z,86.95
2022-09-10T06:00:42.765Z,86.97
2022-09-10T06:01:14.989Z,86.94
2022-09-10T06:01:46.863Z,86.95
2022-09-10T06:02:23.821Z,86.97
2022-09-10T06:02:56.833Z,87.08
2022-09-10T06:03:29.178Z,87.12
2022-09-10T06:04:01.296Z,87.25
2022-09-10T06:04:33.241Z,87.21
2022-09-10T06:05:05.412Z,87.29
2022-09-10T06:05:37.552Z,87.32
2022-09-10T06:06:09.604Z,87.35
2022-09-10T06:06:41.391Z,87.28
2022-09-10T06:07:13.476Z,87.36
2022-09-10T06:07:47.644Z,87.41
2022-09-10T06:08:23.712Z,87.40
2022-09-10T06:08:56.153Z,87.37
2022-09-10T06:09:28.407Z,87.40
2022-09-10T06:10:00.393Z,87.41
2022-09-10T06:10:32.477Z,87.40
2022-09-10T06:11:05.855Z,87.45
2022-09-10T06:11:38.645Z,87.48
2022-09-10T06:12:10.448Z,87.43
2022-09-10T06:12:51.669Z,87.30
2022-09-10T06:13:24.486Z,87.33
2022-09-10T06:13:57.507Z,87.36
2022-09-10T06:14:29.639Z,87.38
2022-09-10T06:15:03.408Z,87.31
2022-09-10T06:15:35.761Z,87.29
2022-09-10T06:16:08.316Z,87.29
2022-09-10T06:16:41.164Z,87.24
2022-09-10T06:17:13.039Z,87.17
2022-09-10T06:17:45.607Z,87.19
2022-09-10T06:18:17.384Z,87.11
2022-09-10T06:18:49.170Z,87.10
2022-09-10T06:19:21.564Z,87.00
2022-09-10T06:19:53.409Z,86.97
2022-09-10T06:20:25.205Z,86.91
2022-09-10T06:21:06.472Z,86.81
2022-09-10T06:21:38.970Z,86.86
2022-09-10T06:22:12.226Z,86.89
2022-09-10T06:22:44.193Z,86.90
2022-09-10T06:23:16.534Z,86.89
2022-09-10T06:23:53.512Z,86.90
2022-09-10T06:24:25.395Z,86.93
2022-09-10T06:24:57.506Z,86.93
2022-09-10T06:25:30.797Z,86.94
2022-09-10T06:26:05.507Z,86.94
2022-09-10T06:26:37.361Z,86.98
2022-09-10T06:27:09.323Z,86.99
2022-09-10T06:27:41.364Z,87.00
2022-09-10T06:28:14.304Z,87.09
2022-09-10T06:28:47.428Z,86.95
2022-09-10T06:29:19.672Z,86.98
2022-09-10T06:29:52.140Z,87.00
2022-09-10T06:30:24.331Z,86.89
2022-09-10T06:30:56.201Z,86.97
2022-09-10T06:31:28.484Z,86.91
2022-09-10T06:32:00.595Z,86.75
2022-09-10T06:32:32.729Z,86.71
2022-09-10T06:33:04.759Z,86.78
2022-09-10T06:33:36.573Z,86.82
2022-09-10T06:34:08.580Z,86.93
2022-09-10T06:34:40.565Z,86.89
2022-09-10T06:35:12.749Z,86.98
2022-09-10T06:35:53.761Z,86.92
2022-09-10T06:36:28.194Z,86.94
2022-09-10T06:37:02.166Z,86.92
2022-09-10T06:37:34.482Z,86.91
2022-09-10T06:38:06.467Z,86.97
2022-09-10T06:38:39.241Z,87.02
2022-09-10T06:39:11.027Z,87.03
2022-09-10T06:39:42.976Z,87.04
2022-09-10T06:40:15.294Z,87.06
2022-09-10T06:40:55.179Z,87.10
2022-09-10T06:41:30.644Z,87.10
2022-09-10T06:42:02.519Z,87.11
2022-09-10T06:42:34.417Z,86.97
2022-09-10T06:43:06.231Z,86.97
2022-09-10T06:43:39.777Z,86.77
2022-09-10T06:44:12.250Z,86.78
2022-09-10T06:44:44.013Z,86.79
2022-09-10T06:45:15.978Z,86.72
2022-09-10T06:45:49.088Z,86.77
2022-09-10T06:48:01.140Z,86.75
2022-09-10T06:49:02.737Z,86.86
2022-09-10T06:49:36.152Z,86.79
2022-09-10T06:50:08.534Z,86.91
2022-09-10T06:50:50.215Z,86.87
2022-09-10T06:51:22.097Z,86.97
2022-09-10T06:51:54.039Z,86.87
2022-09-10T06:52:28.725Z,86.91
2022-09-10T06:53:00.550Z,86.93
2022-09-10T06:53:33.225Z,86.98
2022-09-10T06:54:07.259Z,86.93
2022-09-10T06:54:39.011Z,86.87
2022-09-10T06:55:10.899Z,86.94
2022-09-10T06:55:42.770Z,86.89
2022-09-10T06:56:14.922Z,86.84
2022-09-10T06:56:48.673Z,86.90
2022-09-10T06:57:20.543Z,86.98
2022-09-10T06:57:52.449Z,86.91
2022-09-10T06:58:24.320Z,86.85
2022-09-10T06:59:02.205Z,86.95
2022-09-10T06:59:34.619Z,86.87
2022-09-10T07:00:07.374Z,86.85
2022-09-10T07:00:39.382Z,86.91
2022-09-10T07:01:14.355Z,86.95
2022-09-10T07:01:47.636Z,86.94
2022-09-10T07:02:19.670Z,86.89
2022-09-10T07:02:52.301Z,86.84
2022-09-10T07:03:24.421Z,86.76
2022-09-10T07:04:01.222Z,86.78
2022-09-10T07:04:33.127Z,86.85
2022-09-10T07:05:05.966Z,86.73
2022-09-10T07:05:37.627Z,86.70
2022-09-10T07:06:14.944Z,86.72
2022-09-10T07:06:47.270Z,86.65
2022-09-10T07:07:19.790Z,86.72
2022-09-10T07:07:52.027Z,86.75
2022-09-10T07:08:25.377Z,86.67
2022-09-10T07:08:58.027Z,86.65
2022-09-10T07:09:29.895Z,86.65
2022-09-10T07:10:01.824Z,86.66
2022-09-10T07:10:35.059Z,86.66
2022-09-10T07:11:13.633Z,86.72
2022-09-10T07:11:45.793Z,86.69
2022-09-10T07:12:17.730Z,86.75
2022-09-10T07:12:49.849Z,86.69
2022-09-10T07:13:23.017Z,86.68
2022-09-10T07:13:55.085Z,86.59
2022-09-10T07:14:27.783Z,86.59
2022-09-10T07:14:59.650Z,86.62
2022-09-10T07:15:32.479Z,86.55
2022-09-10T07:16:05.096Z,86.48
2022-09-10T07:16:41.303Z,86.50
2022-09-10T07:17:13.239Z,86.45
2022-09-10T07:17:45.289Z,86.28
2022-09-10T07:18:17.634Z,86.27
2022-09-10T07:18:51.211Z,86.16
2022-09-10T07:19:23.274Z,86.13
2022-09-10T07:19:55.124Z,86.11
2022-09-10T07:20:29.135Z,86.03
2022-09-10T07:21:08.210Z,85.96
2022-09-10T07:21:40.388Z,85.98
2022-09-10T07:22:12.257Z,85.91
2022-09-10T07:22:44.033Z,85.85
2022-09-10T07:23:20.165Z,85.89